• Join FlightAware (Why Join?)
  • Login
  • US Flag 
03:54AM EDT


 

Airport Tracker/Info


-or-


 

Live Flight TrackerFlight Track Log ✈ N1081C ✈ 30-Jun-2013 ✈ KVTA - KMVN

Flight Track Log - Related Links

Times and Time Zones

All times are in EDT time to prevent confusion due to time zone crossing. See the N1081C flight status page for this flight to view local times or setup timezone preferences in your user account.

Time Position Orientation Groundspeed Altitude Reporting Facility
EDT Latitude Longitude Course Direction KTS MPH feet Rate Location/Type
03:39PM 40.0078 -82.4875 229° Southwest 124 143 3,300  Level Indianapolis Center
03:40PM 39.9853 -82.4850 175° South 124 143 3,900 720 Climbing Indianapolis Center
03:41PM 39.9519 -82.4822 176° South 122 140 4,600 720 Climbing Indianapolis Center
03:42PM 39.9217 -82.4992 203° Southwest 126 145 5,400 780 Climbing Indianapolis Center
03:43PM 39.8997 -82.5267 224° Southwest 115 132 6,200 720 Climbing Indianapolis Center
03:44PM 39.8781 -82.5550 225° Southwest 111 128 7,000 720 Climbing Indianapolis Center
03:45PM 39.8428 -82.5931 220° Southwest 123 142 8,000 780 Climbing Indianapolis Center
03:47PM 39.7981 -82.6464 223° Southwest 120 138 9,500 660 Climbing Indianapolis Center
03:48PM 39.7950 -82.6903 265° West 122 140 10,000 240 Climbing Indianapolis Center
03:49PM 39.7922 -82.7469 266° West 149 171 10,000  Level Indianapolis Center
03:50PM 39.7861 -82.8086 263° West 171 197 10,000  Level Indianapolis Center
03:51PM 39.7733 -82.8689 255° West 172 198 10,000  Level Indianapolis Center
03:52PM 39.7578 -82.9306 252° West 176 203 10,000  Level Indianapolis Center
03:53PM 39.7431 -82.9931 253° West 179 206 10,000  Level Indianapolis Center
03:54PM 39.7292 -83.0569 254° West 180 207 10,000 120 Level Indianapolis Center
03:55PM 39.7147 -83.1217 254° West 184 212 10,300 660 Climbing Indianapolis Center
03:56PM 39.7031 -83.1831 256° West 151 174 11,400 960 Climbing Indianapolis Center
03:57PM 39.6947 -83.2303 257° West 135 155 12,300 840 Climbing Indianapolis Center
03:58PM 39.6850 -83.2742 254° West 127 146 13,200 720 Climbing Indianapolis Center
03:59PM 39.6747 -83.3181 253° West 125 144 13,900 360 Climbing Indianapolis Center
04:00PM 39.6633 -83.3681 254° West 141 162 14,000  Climbing Indianapolis Center
04:01PM 39.6489 -83.4286 253° West 169 194 14,000  Level Indianapolis Center
04:02PM 39.6347 -83.4906 253° West 177 204 14,000 -60 Level Indianapolis Center
04:03PM 39.6206 -83.5525 253° West 176 203 13,900  Descending Indianapolis Center
04:04PM 39.6056 -83.6122 252° West 175 201 14,000  Climbing Indianapolis Center
04:05PM 39.5933 -83.6747 256° West 176 203 14,000  Level Indianapolis Center
04:06PM 39.5806 -83.7394 256° West 182 209 14,000  Level Indianapolis Center
04:07PM 39.5658 -83.8128 255° West 180 207 14,000  Level Indianapolis Center
04:09PM 39.5514 -83.8753 253° West 180 207 14,000  Level Indianapolis Center
04:10PM 39.5372 -83.9386 254° West 181 208 14,000  Level Indianapolis Center
04:12PM 39.5083 -84.0650 254° West 181 208 14,000  Level Indianapolis Center
04:13PM 39.4942 -84.1283 254° West 181 208 14,000  Level Indianapolis Center
04:14PM 39.4803 -84.1914 254° West 179 206 14,000  Level Indianapolis Center
04:15PM 39.4653 -84.2569 254° West 186 214 14,000  Level Indianapolis Center
04:16PM 39.4506 -84.3208 253° West 185 213 14,000  Level Indianapolis Center
04:17PM 39.4364 -84.3858 254° West 185 213 14,000  Level Indianapolis Center
04:18PM 39.4214 -84.4619 256° West 186 214 14,000  Level Indianapolis Center
04:19PM 39.4044 -84.5269 251° West 188 216 14,000  Level Indianapolis Center
04:20PM 39.3914 -84.5931 256° West 189 217 14,000  Level Indianapolis Center
04:22PM 39.3603 -84.7247 253° West 190 219 14,000  Level Indianapolis Center
04:23PM 39.3442 -84.7908 253° West 191 220 14,000  Level Indianapolis Center
04:24PM 39.3283 -84.8575 253° West 193 222 14,000  Level Indianapolis Center
04:25PM 39.3111 -84.9256 252° West 194 223 14,000  Level Indianapolis Center
04:26PM 39.2972 -84.9919 255° West 192 221 14,000  Level Indianapolis Center
04:27PM 39.2836 -85.0564 255° West 187 215 14,000  Level Indianapolis Center
04:28PM 39.2675 -85.1197 252° West 187 215 14,000  Level Indianapolis Center
04:29PM 39.2506 -85.1961 254° West 185 213 14,000  Level Indianapolis Center
04:30PM 39.2350 -85.2619 253° West 191 220 14,000  Level Indianapolis Center
04:31PM 39.2211 -85.3264 254° West 187 215 14,000  Level Indianapolis Center
04:32PM 39.2042 -85.3892 251° West 184 212 14,000  Level Indianapolis Center
04:33PM 39.1894 -85.4533 254° West 185 213 14,000  Level Indianapolis Center
04:34PM 39.1731 -85.5181 252° West 188 216 14,000 -60 Level Indianapolis Center
04:35PM 39.1578 -85.5825 253° West 188 216 13,900  Descending Indianapolis Center
04:36PM 39.1417 -85.6442 251° West 182 209 14,000  Climbing Indianapolis Center
04:37PM 39.1242 -85.7192 253° West 182 209 13,900 -60 Descending Indianapolis Center
04:38PM 39.1097 -85.7808 253° West 181 208 13,900  Level Indianapolis Center
04:39PM 39.0947 -85.8419 252° West 180 207 13,900  Level Indianapolis Center
04:40PM 39.0794 -85.9069 253° West 187 215 13,900  Level Indianapolis Center
04:41PM 39.0642 -85.9692 252° West 184 212 13,900  Level Indianapolis Center
04:42PM 39.0492 -86.0325 253° West 184 212 13,900  Level Indianapolis Center
04:43PM 39.0347 -86.0953 254° West 183 211 13,900  Level Indianapolis Center
04:44PM 39.0183 -86.1586 252° West 186 214 13,900  Level Indianapolis Center
04:46PM 39.0000 -86.2347 253° West 185 213 13,900  Level Indianapolis Center
04:47PM 38.9844 -86.2983 253° West 186 214 14,000  Climbing Indianapolis Center
04:48PM 38.9694 -86.3614 253° West 186 214 14,000  Level Indianapolis Center
04:49PM 38.9525 -86.4247 251° West 187 215 14,000  Level Indianapolis Center
04:50PM 38.9369 -86.4894 253° West 189 217 14,000  Level Indianapolis Center
04:51PM 38.9206 -86.5519 251° West 186 214 14,000  Level Indianapolis Center
04:52PM 38.9036 -86.6261 254° West 188 216 14,000  Level Indianapolis Center
04:53PM 38.8886 -86.6897 253° West 187 215 14,000  Level Indianapolis Center
04:54PM 38.8722 -86.7531 252° West 187 215 14,000  Level Indianapolis Center
04:55PM 38.8558 -86.8189 252° West 190 219 14,000  Level Indianapolis Center
04:56PM 38.8403 -86.8839 253° West 192 221 14,000  Level Indianapolis Center
04:57PM 38.8228 -86.9481 251° West 190 219 14,000  Level Indianapolis Center
04:58PM 38.8078 -87.0089 252° West 182 209 14,000  Level Indianapolis Center
04:59PM 38.7922 -87.0717 252° West 185 213 14,000 -300 Level Indianapolis Center
05:00PM 38.7703 -87.1506 250° West 195 224 13,500 -480 Descending Indianapolis Center
05:01PM 38.7533 -87.2203 253° West 204 235 13,100 -420 Descending Indianapolis Center
05:02PM 38.7361 -87.2875 252° West 201 231 12,700 -420 Descending Indianapolis Center
05:03PM 38.7183 -87.3539 251° West 198 228 12,300 -420 Descending Indianapolis Center
05:04PM 38.7017 -87.4214 252° West 198 228 11,900 -420 Descending Indianapolis Center
05:05PM 38.6839 -87.4889 251° West 199 229 11,500 -480 Descending Indianapolis Center
05:07PM 38.6494 -87.6236 252° West 199 229 10,600 -480 Descending Indianapolis Center
05:08PM 38.6303 -87.7053 253° West 199 229 10,100 -480 Descending Indianapolis Center
05:09PM 38.6114 -87.7717 250° West 199 229 9,700 -420 Descending Indianapolis Center
05:10PM 38.5947 -87.8389 252° West 198 228 9,300 -420 Descending Indianapolis Center
05:11PM 38.5767 -87.9042 251° West 196 226 8,900 -420 Descending Indianapolis Center
05:12PM 38.5578 -87.9711 250° West 198 228 8,500 -480 Descending Indianapolis Center
05:13PM 38.5414 -88.0375 253° West 197 227 8,000 -420 Descending Indianapolis Center
05:14PM 38.5256 -88.1039 253° West 196 226 7,700 -420 Descending Indianapolis Center
05:15PM 38.5081 -88.1694 251° West 195 224 7,200 -420 Descending Indianapolis Center
05:16PM 38.4897 -88.2403 252° West 195 224 6,900 -480 Descending Indianapolis Center
05:17PM 38.4786 -88.3064 258° West 190 219 6,300 -540 Descending Kansas City Center
05:18PM 38.4542 -88.3778 246° West 192 221 5,800 -540 Descending Kansas City Center
05:19PM 38.4319 -88.4425 246° West 198 228 5,200 -600 Descending Kansas City Center
05:20PM 38.4136 -88.5075 250° West 196 226 4,600 -600 Descending Kansas City Center
05:22PM 38.3956 -88.5696 250° West  Level FlightAware Approximate
05:22PM 38.3967 -88.5703 250° West 190 219 4,000  Level Kansas City Center
05:23PM 38.3811 -88.6300 252° West 181 208 3,300 -720 Descending Kansas City Center
05:24PM 38.3642 -88.7028 253° West 182 209 2,600 -720 Descending Kansas City Center